< Cyclone 198803 1988 Season Cyclone 198805 >
Cyclone 198804 (CHARLIE)
General InformationTrack Information on Google MapsList of All Images || ResourceGoogle EarthGE AnimationAtom FeedGeoJSON
Detalied Best Track (Time Zone = UTC)
Year Month Day Hour Lat. Long. Pressure (hPa) Wind (kt) Class Image Chart
1988 2 21 00 -12.7 159.1 997 0 0 Image --
1988 2 21 06 -13.9 158.4 997 0 0 Image --
1988 2 21 12 -14.1 158.1 998 0 0 Image --
1988 2 21 18 -14.2 157.9 995 0 0 Image --
1988 2 22 00 -14.3 157.6 995 0 0 Image --
1988 2 22 06 -14.5 156.9 995 0 0 Image --
1988 2 22 12 -14.5 156.5 993 0 0 Image --
1988 2 22 18 -14.5 156.2 992 0 0 Image --
1988 2 23 00 -14.4 155.7 990 0 0 Image --
1988 2 23 06 -14.4 155.2 989 0 0 Image --
1988 2 23 12 -14.6 154.7 988 0 0 Image --
1988 2 23 18 -14.8 154.6 986 0 0 Image --
1988 2 24 00 -15.1 154.5 985 0 0 Image --
1988 2 24 06 -15.4 154.5 987 0 0 Image --
1988 2 24 12 -16.1 155.1 992 0 0 Image --
1988 2 24 18 -16.8 154.9 993 0 0 Image --
1988 2 25 00 -17.3 154.6 993 0 0 Image --
1988 2 25 06 -17.5 154.1 995 0 0 Image --
1988 2 25 12 -17.4 153.7 996 0 0 Image --
1988 2 25 18 -17.4 153.3 996 0 0 Image --
1988 2 26 00 -17.4 152.8 995 0 0 Image --
1988 2 26 06 -17.1 152.3 992 0 0 Image --
1988 2 26 12 -16.8 152.2 995 0 0 Image --
1988 2 26 18 -16.7 152.0 995 0 0 Image --
1988 2 27 00 -16.9 152.0 996 0 0 Image --
1988 2 27 06 -17.4 151.7 994 0 0 Image --
1988 2 27 12 -17.7 150.9 992 0 0 Image --
1988 2 27 18 -17.9 150.0 990 0 0 Image --
1988 2 28 00 -18.0 149.0 990 0 0 Image --
1988 2 28 06 -18.1 148.4 985 0 0 Image --
1988 2 28 12 -18.3 148.0 985 0 0 Image --
1988 2 28 18 -18.8 147.7 985 0 0 Image --
1988 2 29 00 -19.2 147.6 985 0 0 Image --
1988 2 29 06 -19.3 147.3 982 0 0 Image --
1988 2 29 12 -19.5 147.6 972 0 0 Image --
1988 2 29 16 -19.6 147.7 972 0 0 Image --
1988 2 29 18 -19.7 147.7 980 0 0 Image --
1988 3 1 00 -20.3 147.9 993 0 0 Image --
1988 3 1 06 -20.9 147.6 996 0 0 Image --
1988 3 1 12 -20.8 147.5 999 0 0 Image --
1988 3 1 18 -20.8 147.5 1000 0 0 Image --
< Cyclone 198803 1988 Season Cyclone 198805 >

Help